createdAt,value
2019-01-15T00:02:19.882Z,4.00
2019-01-15T00:05:27.607Z,3.63
2019-01-15T00:08:17.094Z,4.07
2019-01-15T00:10:47.036Z,4.37
2019-01-15T00:13:35.960Z,3.60
2019-01-15T00:19:32.825Z,2.43
2019-01-15T00:22:03.133Z,2.57
2019-01-15T00:24:51.881Z,2.53
2019-01-15T00:27:40.817Z,3.30
2019-01-15T00:30:29.647Z,3.07
2019-01-15T00:33:37.373Z,3.57
2019-01-15T00:36:05.076Z,3.57
2019-01-15T00:38:47.085Z,2.67
2019-01-15T00:41:30.635Z,3.10
2019-01-15T00:44:12.181Z,2.40
2019-01-15T00:49:40.640Z,2.70
2019-01-15T00:52:22.683Z,3.30
2019-01-15T00:57:52.685Z,3.70
2019-01-15T01:03:46.207Z,3.53
2019-01-15T01:09:10.328Z,2.57
2019-01-15T01:11:51.586Z,3.20
2019-01-15T01:14:33.272Z,3.10
2019-01-15T01:17:14.714Z,2.80
2019-01-15T01:19:56.210Z,2.87
2019-01-15T01:25:19.918Z,3.00
2019-01-15T01:27:49.765Z,2.90
2019-01-15T01:30:38.518Z,2.60
2019-01-15T01:33:19.780Z,3.73
2019-01-15T01:36:01.475Z,2.83
2019-01-15T01:38:42.936Z,3.70
2019-01-15T01:41:24.243Z,3.60
2019-01-15T01:44:06.012Z,3.20
2019-01-15T01:46:47.800Z,3.27
2019-01-15T01:49:28.459Z,3.67
2019-01-15T01:52:10.049Z,3.10
2019-01-15T01:57:33.823Z,3.27
2019-01-15T02:00:04.099Z,3.47
2019-01-15T02:02:53.719Z,3.60
2019-01-15T02:05:23.514Z,3.40
2019-01-15T02:07:53.337Z,3.73
2019-01-15T02:10:23.176Z,3.27
2019-01-15T02:12:53.104Z,3.47
2019-01-15T02:15:25.393Z,3.13
2019-01-15T02:17:55.325Z,3.60
2019-01-15T02:20:25.214Z,3.30
2019-01-15T02:22:55.267Z,3.60
2019-01-15T02:25:24.997Z,2.90
2019-01-15T02:27:54.972Z,3.10
2019-01-15T02:30:26.584Z,3.13
2019-01-15T02:32:56.426Z,3.50
2019-01-15T02:35:26.601Z,3.87
2019-01-15T02:37:56.473Z,3.23
2019-01-15T02:40:26.273Z,3.20
2019-01-15T02:42:56.087Z,3.40
2019-01-15T02:45:25.829Z,4.20
2019-01-15T02:47:55.751Z,3.83
2019-01-15T02:50:25.481Z,3.67
2019-01-15T02:52:55.533Z,4.30
2019-01-15T02:55:25.264Z,3.57
2019-01-15T02:57:55.089Z,4.53
2019-01-15T03:00:28.629Z,4.70
2019-01-15T03:02:58.435Z,3.67
2019-01-15T03:05:28.351Z,3.97
2019-01-15T03:07:58.112Z,4.10
2019-01-15T03:10:27.889Z,4.17
2019-01-15T03:12:57.705Z,4.17
2019-01-15T03:15:27.496Z,4.67
2019-01-15T03:17:57.327Z,4.50
2019-01-15T03:20:27.152Z,5.10
2019-01-15T03:22:57.222Z,4.80
2019-01-15T03:25:27.130Z,4.77
2019-01-15T03:27:56.909Z,4.50
2019-01-15T03:30:26.713Z,5.00
2019-01-15T03:32:56.502Z,5.83
2019-01-15T03:35:26.264Z,4.77
2019-01-15T03:37:56.050Z,5.10
2019-01-15T03:40:27.092Z,4.47
2019-01-15T03:43:03.594Z,4.70
2019-01-15T03:45:28.516Z,4.43
2019-01-15T03:47:58.352Z,4.87
2019-01-15T03:50:28.137Z,4.63
2019-01-15T03:53:00.031Z,5.00
2019-01-15T03:55:29.884Z,4.60
2019-01-15T03:57:59.690Z,4.10
2019-01-15T04:00:29.440Z,4.17
2019-01-15T04:02:59.252Z,4.40
2019-01-15T04:05:29.118Z,3.87
2019-01-15T04:07:59.903Z,3.50
2019-01-15T04:10:29.853Z,3.73
2019-01-15T04:12:59.698Z,2.97
2019-01-15T04:15:29.602Z,3.10
2019-01-15T04:17:59.507Z,2.50
2019-01-15T04:20:29.357Z,1.83
2019-01-15T04:22:59.102Z,2.00
2019-01-15T04:25:28.979Z,2.00
2019-01-15T04:27:58.820Z,1.30
2019-01-15T04:30:28.572Z,1.27
2019-01-15T04:32:58.448Z,1.73
2019-01-15T04:35:28.241Z,1.50
2019-01-15T04:37:58.000Z,1.20
2019-01-15T04:40:27.778Z,1.17
2019-01-15T04:42:57.581Z,1.57
2019-01-15T04:45:29.313Z,2.20
2019-01-15T04:47:59.238Z,2.30
2019-01-15T04:50:29.138Z,1.87
2019-01-15T04:53:04.923Z,2.47
2019-01-15T04:55:34.459Z,2.00
2019-01-15T04:58:04.444Z,2.20
2019-01-15T05:00:34.261Z,2.77
2019-01-15T05:03:07.042Z,2.37
2019-01-15T05:05:36.928Z,2.50
2019-01-15T05:08:06.902Z,2.50
2019-01-15T05:10:36.706Z,2.63
2019-01-15T05:13:06.414Z,3.20
2019-01-15T05:15:36.239Z,3.17
2019-01-15T05:18:06.131Z,3.00
2019-01-15T05:20:35.978Z,2.40
2019-01-15T05:23:08.754Z,2.80
2019-01-15T05:25:38.511Z,3.07
2019-01-15T05:28:08.332Z,2.37
2019-01-15T05:30:38.130Z,2.87
2019-01-15T05:33:07.995Z,3.07
2019-01-15T05:35:38.119Z,3.20
2019-01-15T05:38:07.973Z,2.97
2019-01-15T05:40:37.771Z,3.40
2019-01-15T05:43:09.969Z,3.90
2019-01-15T05:45:42.497Z,3.07
2019-01-15T05:48:16.257Z,3.07
2019-01-15T05:51:05.163Z,2.63
2019-01-15T05:53:34.917Z,2.67
2019-01-15T05:56:05.022Z,2.67
2019-01-15T05:58:34.855Z,2.23
2019-01-15T06:01:05.050Z,2.93
2019-01-15T06:03:34.998Z,2.83
2019-01-15T06:06:04.856Z,2.23
2019-01-15T06:08:34.654Z,2.40
2019-01-15T06:11:04.410Z,2.40
2019-01-15T06:13:34.156Z,1.83
2019-01-15T06:16:03.967Z,2.07
2019-01-15T06:18:33.729Z,2.60
2019-01-15T06:21:03.605Z,2.60
2019-01-15T06:23:33.404Z,2.57
2019-01-15T06:26:03.196Z,2.63
2019-01-15T06:28:33.242Z,2.80
2019-01-15T06:31:02.995Z,2.83
2019-01-15T06:33:32.922Z,2.97
2019-01-15T06:36:02.677Z,2.90
2019-01-15T06:38:32.657Z,2.50
2019-01-15T06:41:02.488Z,3.00
2019-01-15T06:43:32.150Z,2.80
2019-01-15T06:46:01.970Z,3.00
2019-01-15T06:48:32.225Z,3.17
2019-01-15T06:51:01.973Z,3.90
2019-01-15T06:53:31.823Z,3.27
2019-01-15T06:56:01.597Z,3.67
2019-01-15T06:58:31.497Z,3.30
2019-01-15T07:01:01.376Z,3.13
2019-01-15T07:03:31.371Z,3.00
2019-01-15T07:06:01.157Z,3.50
2019-01-15T07:08:31.044Z,3.57
2019-01-15T07:11:04.460Z,3.33
2019-01-15T07:13:34.212Z,3.20
2019-01-15T07:16:04.812Z,3.57
2019-01-15T07:18:34.581Z,3.43
2019-01-15T07:21:04.732Z,3.20
2019-01-15T07:23:34.524Z,3.37
2019-01-15T07:26:04.385Z,3.20
2019-01-15T07:28:34.200Z,3.60
2019-01-15T07:31:04.211Z,3.00
2019-01-15T07:33:34.073Z,3.63
2019-01-15T07:36:04.182Z,3.63
2019-01-15T07:38:33.957Z,3.50
2019-01-15T07:41:03.753Z,3.33
2019-01-15T07:43:33.532Z,4.10
2019-01-15T07:46:03.513Z,3.40
2019-01-15T07:48:33.290Z,3.97
2019-01-15T07:51:03.219Z,3.37
2019-01-15T07:53:33.076Z,4.50
2019-01-15T07:56:02.892Z,4.60
2019-01-15T07:58:32.930Z,4.77
2019-01-15T08:01:02.825Z,3.73
2019-01-15T08:03:32.573Z,3.20
2019-01-15T08:06:02.408Z,4.13
2019-01-15T08:08:32.190Z,3.10
2019-01-15T08:11:02.027Z,3.47
2019-01-15T08:13:31.832Z,2.80
2019-01-15T08:16:01.597Z,3.50
2019-01-15T08:18:31.519Z,3.40
2019-01-15T08:21:01.298Z,3.00
2019-01-15T08:23:31.146Z,3.03
2019-01-15T08:26:00.994Z,2.90
2019-01-15T08:28:30.995Z,2.43
2019-01-15T08:31:00.834Z,2.50
2019-01-15T08:33:30.657Z,2.13
2019-01-15T08:36:00.635Z,2.87
2019-01-15T08:38:30.522Z,2.73
2019-01-15T08:41:00.295Z,2.63
2019-01-15T08:43:30.057Z,2.70
2019-01-15T08:45:59.797Z,2.07
2019-01-15T08:48:31.145Z,2.20
2019-01-15T08:51:01.589Z,1.90
2019-01-15T08:53:31.871Z,2.30
2019-01-15T08:56:02.001Z,2.10
2019-01-15T08:58:31.934Z,2.57
2019-01-15T09:01:04.940Z,1.87
2019-01-15T09:03:34.727Z,1.97
2019-01-15T09:06:04.727Z,2.07
2019-01-15T09:08:34.513Z,1.47
2019-01-15T09:11:04.407Z,2.20
2019-01-15T09:13:34.425Z,1.80
2019-01-15T09:16:04.300Z,2.07
2019-01-15T09:18:34.194Z,1.70
2019-01-15T09:21:03.933Z,1.30
2019-01-15T09:23:33.749Z,1.77
2019-01-15T09:26:03.728Z,1.87
2019-01-15T09:28:33.508Z,1.93
2019-01-15T09:31:03.313Z,2.07
2019-01-15T09:33:33.377Z,1.97
2019-01-15T09:36:03.189Z,1.80
2019-01-15T09:38:33.013Z,1.67
2019-01-15T09:41:02.815Z,2.10
2019-01-15T09:43:37.845Z,2.00
2019-01-15T09:46:07.717Z,2.20
2019-01-15T09:48:38.375Z,1.80
2019-01-15T09:51:08.309Z,2.17
2019-01-15T09:53:38.346Z,1.70
2019-01-15T09:56:08.210Z,2.13
2019-01-15T09:58:38.066Z,2.13
2019-01-15T10:01:07.926Z,2.20
2019-01-15T10:03:37.693Z,1.90
2019-01-15T10:06:07.482Z,1.77
2019-01-15T10:08:37.293Z,2.50
2019-01-15T10:11:07.095Z,1.80
2019-01-15T10:13:36.973Z,1.87
2019-01-15T10:16:06.869Z,1.70
2019-01-15T10:18:36.673Z,2.60
2019-01-15T10:21:06.482Z,1.73
2019-01-15T10:23:36.212Z,1.80
2019-01-15T10:26:06.063Z,1.80
2019-01-15T10:28:35.799Z,2.07
2019-01-15T10:31:42.493Z,1.40
2019-01-15T10:34:22.487Z,1.60
2019-01-15T10:36:50.441Z,1.60
2019-01-15T10:39:20.333Z,1.20
2019-01-15T10:41:50.081Z,1.80
2019-01-15T10:44:19.967Z,1.43
2019-01-15T10:46:49.792Z,1.30
2019-01-15T10:49:19.593Z,1.10
2019-01-15T10:51:49.419Z,1.53
2019-01-15T10:54:19.210Z,1.37
2019-01-15T10:56:48.992Z,1.20
2019-01-15T10:59:18.825Z,1.20
2019-01-15T11:01:48.632Z,1.30
2019-01-15T11:04:18.463Z,1.30
2019-01-15T11:06:49.356Z,1.17
2019-01-15T11:09:19.195Z,1.00
2019-01-15T11:11:49.051Z,1.30
2019-01-15T11:14:19.763Z,1.20
2019-01-15T11:16:49.588Z,1.10
2019-01-15T11:19:19.394Z,1.20
2019-01-15T11:21:49.184Z,1.40
2019-01-15T11:24:19.045Z,1.00
2019-01-15T11:26:48.910Z,1.30
2019-01-15T11:29:18.840Z,1.30
2019-01-15T11:31:48.661Z,1.10
2019-01-15T11:34:18.582Z,1.40
2019-01-15T11:36:48.510Z,1.03
2019-01-15T11:39:18.596Z,1.20
2019-01-15T11:41:48.369Z,1.10
2019-01-15T11:44:18.262Z,1.10
2019-01-15T11:46:48.234Z,1.00
2019-01-15T11:49:18.008Z,1.10
2019-01-15T11:51:47.789Z,1.07
2019-01-15T11:54:17.775Z,1.00
2019-01-15T11:56:47.641Z,1.07
2019-01-15T11:59:17.488Z,1.40
2019-01-15T12:01:52.458Z,1.60
2019-01-15T12:04:53.245Z,1.20
2019-01-15T12:07:50.759Z,0.90
2019-01-15T12:10:28.512Z,1.13
2019-01-15T12:13:26.156Z,1.00
2019-01-15T12:16:13.189Z,1.07
2019-01-15T12:19:19.954Z,1.10
2019-01-15T12:22:20.828Z,1.10
2019-01-15T12:25:09.430Z,1.10
2019-01-15T12:28:10.041Z,1.07
2019-01-15T12:30:58.160Z,1.00
2019-01-15T12:33:55.727Z,0.83
2019-01-15T12:36:47.345Z,1.10
2019-01-15T12:39:38.950Z,1.00
2019-01-15T12:42:28.723Z,1.00
2019-01-15T12:45:18.445Z,1.10
2019-01-15T12:47:58.261Z,1.00
2019-01-15T12:50:35.298Z,1.10
2019-01-15T12:53:24.464Z,1.10
2019-01-15T12:56:11.915Z,1.00
2019-01-15T12:58:58.091Z,0.90
2019-01-15T13:01:40.182Z,1.60
2019-01-15T13:04:28.826Z,1.20
2019-01-15T13:07:26.683Z,1.20
2019-01-15T13:10:18.127Z,1.37
2019-01-15T13:13:10.180Z,1.23
2019-01-15T13:16:04.674Z,1.57
2019-01-15T13:18:59.221Z,1.90
2019-01-15T13:21:53.643Z,1.63
2019-01-15T13:24:36.644Z,1.60
2019-01-15T13:27:43.360Z,1.80
2019-01-15T13:30:51.456Z,2.17
2019-01-15T13:33:38.733Z,1.30
2019-01-15T13:36:33.657Z,1.50
2019-01-15T13:39:17.936Z,1.60
2019-01-15T13:41:58.806Z,2.00
2019-01-15T13:44:46.074Z,2.10
2019-01-15T13:47:40.869Z,2.10
2019-01-15T13:50:28.420Z,1.80
2019-01-15T13:53:28.918Z,2.17
2019-01-15T13:56:19.676Z,2.50
2019-01-15T13:59:11.128Z,2.73
2019-01-15T14:02:01.036Z,2.27
2019-01-15T14:04:49.862Z,2.40
2019-01-15T14:07:41.442Z,2.40
2019-01-15T14:10:26.186Z,2.20
2019-01-15T14:13:20.709Z,2.30
2019-01-15T14:16:01.921Z,2.40
2019-01-15T14:18:56.693Z,2.80
2019-01-15T14:21:45.321Z,2.70
2019-01-15T14:24:43.490Z,2.47
2019-01-15T14:27:47.111Z,2.83
2019-01-15T14:30:34.674Z,2.90
2019-01-15T14:33:39.581Z,3.30
2019-01-15T14:36:36.891Z,3.20
2019-01-15T14:39:17.661Z,2.80
2019-01-15T14:42:00.889Z,3.53
2019-01-15T14:44:48.075Z,2.90
2019-01-15T14:47:39.721Z,4.37
2019-01-15T14:50:30.737Z,3.00
2019-01-15T14:53:17.443Z,2.63
2019-01-15T14:56:21.173Z,3.70
2019-01-15T14:59:09.921Z,3.97
2019-01-15T15:01:53.090Z,4.50
2019-01-15T15:04:56.648Z,3.87
2019-01-15T15:07:44.118Z,4.00
2019-01-15T15:10:35.633Z,3.90
2019-01-15T15:13:43.461Z,4.37
2019-01-15T15:16:44.821Z,3.90
2019-01-15T15:19:38.901Z,3.63
2019-01-15T15:22:26.858Z,4.07
2019-01-15T15:25:19.773Z,3.83
2019-01-15T15:28:17.321Z,4.00
2019-01-15T15:31:05.925Z,4.30
2019-01-15T15:33:53.979Z,3.70
2019-01-15T15:36:42.772Z,4.30
2019-01-15T15:39:25.685Z,4.63
2019-01-15T15:42:20.369Z,15.33
2019-01-15T15:45:03.103Z,5.43
2019-01-15T15:47:50.690Z,3.90
2019-01-15T15:50:57.582Z,4.10
2019-01-15T15:54:04.290Z,4.00
2019-01-15T15:57:11.164Z,4.17
2019-01-15T15:59:58.429Z,4.43
2019-01-15T16:02:52.919Z,4.80
2019-01-15T16:05:36.445Z,4.57
2019-01-15T16:08:25.245Z,5.10
2019-01-15T16:11:22.749Z,3.97
2019-01-15T16:14:17.926Z,5.80
2019-01-15T16:17:01.916Z,4.83
2019-01-15T16:19:56.768Z,5.27
2019-01-15T16:22:48.222Z,4.93
2019-01-15T16:25:39.777Z,4.60
2019-01-15T16:28:28.453Z,3.87
2019-01-15T16:31:15.807Z,4.90
2019-01-15T16:34:07.224Z,7.70
2019-01-15T16:37:11.202Z,5.53
2019-01-15T16:39:55.720Z,5.23
2019-01-15T16:42:39.382Z,5.57
2019-01-15T16:45:28.227Z,5.80
2019-01-15T16:48:16.902Z,4.87
2019-01-15T16:51:11.825Z,4.60
2019-01-15T16:54:06.271Z,4.93
2019-01-15T16:57:03.705Z,4.60
2019-01-15T16:59:50.998Z,4.90
2019-01-15T17:02:35.347Z,4.50
2019-01-15T17:05:24.266Z,4.50
2019-01-15T17:08:11.547Z,4.53
2019-01-15T17:10:57.113Z,4.60
2019-01-15T17:13:49.079Z,4.13
2019-01-15T17:16:52.959Z,5.37
2019-01-15T17:19:44.477Z,4.70
2019-01-15T17:22:36.347Z,4.20
2019-01-15T17:25:17.656Z,4.70
2019-01-15T17:28:01.809Z,4.87
2019-01-15T17:30:50.663Z,4.90
2019-01-15T17:33:32.904Z,4.70
2019-01-15T17:36:24.902Z,4.90
2019-01-15T17:39:13.040Z,5.60
2019-01-15T17:42:04.586Z,5.63
2019-01-15T17:44:53.344Z,4.80
2019-01-15T17:47:36.327Z,4.87
2019-01-15T17:50:38.784Z,4.27
2019-01-15T17:53:30.683Z,5.07
2019-01-15T17:56:19.613Z,4.13
2019-01-15T17:59:01.998Z,4.47
2019-01-15T18:01:50.685Z,4.67
2019-01-15T18:04:30.754Z,5.27
2019-01-15T18:07:17.825Z,5.00
2019-01-15T18:10:15.474Z,4.20
2019-01-15T18:13:00.205Z,3.87
2019-01-15T18:15:45.671Z,4.70
2019-01-15T18:18:33.527Z,15.67
2019-01-15T18:21:34.255Z,5.97
2019-01-15T18:24:28.258Z,6.40
2019-01-15T18:27:23.519Z,8.50
2019-01-15T18:30:10.862Z,4.20
2019-01-15T18:32:51.839Z,7.10
2019-01-15T18:35:39.144Z,5.70
2019-01-15T18:38:15.608Z,4.33
2019-01-15T18:41:00.451Z,4.90
2019-01-15T18:43:49.364Z,4.10
2019-01-15T18:46:56.161Z,5.23
2019-01-15T18:49:56.542Z,5.20
2019-01-15T18:52:43.800Z,4.87
2019-01-15T18:55:32.499Z,4.23
2019-01-15T18:58:20.729Z,4.37
2019-01-15T19:01:06.959Z,4.70
2019-01-15T19:03:54.931Z,4.17
2019-01-15T19:06:42.355Z,5.17
2019-01-15T19:09:30.106Z,17.63
2019-01-15T19:12:27.667Z,4.20
2019-01-15T19:15:16.835Z,5.17
2019-01-15T19:18:11.860Z,6.40
2019-01-15T19:21:19.849Z,4.97
2019-01-15T19:24:26.947Z,5.03
2019-01-15T19:27:18.722Z,4.90
2019-01-15T19:30:14.558Z,5.00
2019-01-15T19:33:02.159Z,5.90
2019-01-15T19:35:53.053Z,5.77
2019-01-15T19:38:40.590Z,5.73
2019-01-15T19:41:35.934Z,7.63
2019-01-15T19:44:25.167Z,5.77
2019-01-15T19:47:12.674Z,6.17
2019-01-15T19:50:20.300Z,5.53
2019-01-15T19:53:18.262Z,5.13
2019-01-15T19:56:05.371Z,5.80
2019-01-15T19:58:52.971Z,5.30
2019-01-15T20:01:56.231Z,4.77
2019-01-15T20:04:41.749Z,5.37
2019-01-15T20:07:36.430Z,5.17
2019-01-15T20:10:27.105Z,5.30
2019-01-15T20:13:18.992Z,5.07
2019-01-15T20:16:18.003Z,5.20
2019-01-15T20:19:23.788Z,5.60
2019-01-15T20:22:19.029Z,5.30
2019-01-15T20:25:19.960Z,5.23
2019-01-15T20:28:21.597Z,4.97
2019-01-15T20:31:23.672Z,5.50
2019-01-15T20:34:23.358Z,4.80
2019-01-15T20:37:40.007Z,5.40
2019-01-15T20:40:35.707Z,6.03
2019-01-15T20:43:28.430Z,5.70
2019-01-15T20:46:11.718Z,5.83
2019-01-15T20:49:00.037Z,5.83
2019-01-15T20:51:52.359Z,6.03
2019-01-15T20:54:47.518Z,5.63
2019-01-15T20:57:36.178Z,5.63
2019-01-15T21:00:26.589Z,5.80
2019-01-15T21:03:15.498Z,5.70
2019-01-15T21:06:04.583Z,5.53
2019-01-15T21:08:48.478Z,5.77
2019-01-15T21:11:35.824Z,5.33
2019-01-15T21:14:36.101Z,5.60
2019-01-15T21:17:32.563Z,6.00
2019-01-15T21:20:10.980Z,6.27
2019-01-15T21:23:17.881Z,6.50
2019-01-15T21:26:04.842Z,5.80
2019-01-15T21:29:00.311Z,5.90
2019-01-15T21:31:45.129Z,6.37
2019-01-15T21:34:47.013Z,6.87
2019-01-15T21:37:33.811Z,6.50
2019-01-15T21:40:21.657Z,6.27
2019-01-15T21:43:20.009Z,6.73
2019-01-15T21:46:16.230Z,7.43
2019-01-15T21:49:21.929Z,6.30
2019-01-15T21:52:10.071Z,6.57
2019-01-15T21:55:11.182Z,7.20
2019-01-15T21:57:58.601Z,7.63
2019-01-15T22:00:58.262Z,5.77
2019-01-15T22:03:45.374Z,7.70
2019-01-15T22:06:45.858Z,7.20
2019-01-15T22:09:45.374Z,7.40
2019-01-15T22:12:35.509Z,7.27
2019-01-15T22:15:41.435Z,7.00
2019-01-15T22:18:39.561Z,7.50
2019-01-15T22:21:29.363Z,7.23
2019-01-15T22:24:18.498Z,7.10
2019-01-15T22:27:16.358Z,7.20
2019-01-15T22:30:24.251Z,7.60
2019-01-15T22:33:12.632Z,7.50
2019-01-15T22:36:14.112Z,8.60
2019-01-15T22:39:11.043Z,7.40
2019-01-15T22:42:04.217Z,8.23
2019-01-15T22:44:56.070Z,8.50
2019-01-15T22:47:54.684Z,7.20
2019-01-15T22:50:42.065Z,7.63
2019-01-15T22:53:35.994Z,7.50
2019-01-15T22:56:36.490Z,7.67
2019-01-15T22:59:17.242Z,7.40
2019-01-15T23:02:14.945Z,7.77
2019-01-15T23:05:16.665Z,7.37
2019-01-15T23:08:06.263Z,8.17
2019-01-15T23:10:47.715Z,8.67
2019-01-15T23:13:32.805Z,7.47
2019-01-15T23:16:10.858Z,8.53
2019-01-15T23:19:02.669Z,8.23
2019-01-15T23:21:48.976Z,7.97
2019-01-15T23:24:43.469Z,8.57
2019-01-15T23:27:33.298Z,8.40
2019-01-15T23:30:29.213Z,8.90
2019-01-15T23:33:11.176Z,8.37
2019-01-15T23:36:09.025Z,7.80
2019-01-15T23:39:03.815Z,8.50
2019-01-15T23:41:58.544Z,8.53
2019-01-15T23:44:45.555Z,8.33
2019-01-15T23:47:24.045Z,8.50
2019-01-15T23:50:30.577Z,8.23
2019-01-15T23:53:25.291Z,8.87
2019-01-15T23:56:32.112Z,8.83
2019-01-15T23:59:32.749Z,7.80
